Aérodrome :
LOGIN :

S'inscrire | Disclaimer

   EN    FR    IT 

 










Légende :    VFR   VFR Marginal   IFR   IFR Intensif   IFR Très Intensif
Visi : 
Plafond : 
>= 8 km
>= 3000ft
5 à 8 km
1000 à 3000 ft
1500m à 5 km
500 à 1000 ft
800 à 1500m
200 à 500 ft
< 800m
< 200 ft
Symboles :   Orages  Brouillard  Fortes neiges  Fortes précipitations  Vent > 20 kt
SIGMETs :   Divers  Orages  Givrage  Turbulence  Onde Orograph.  Cendres Volcan.






- Altitude de l'aérodrome : 219 ft
- Code IATA : DNR


LFRD - Dinard

DERNIER METAR :
  • 230930Z AUTO 31007KT 9999 SCT019/// BKN025/// BKN088/// //////CB 16/13 Q1017 TEMPO 1200 TSRAGS

METARs EXPIRÉS :
  • 230900Z AUTO 28006KT 240V320 9999 BKN018 BKN060 OVC086 16/13 Q1017 TEMPO 1200 TSRAGS BKN020CB
  • 230830Z AUTO 28007KT 9999 BKN019 BKN042 BKN049 15/12 Q1017 TEMPO 1200 TSRAGS BKN020CB BECMG 34010KT
  • 230800Z AUTO 26005KT 220V290 9999 FEW018/// BKN033/// BKN044/// 15/12 Q1016
  • 230730Z AUTO 25004KT 210V290 9999 BKN029 BKN040 14/12 Q1016 TEMPO 3000 SHRA BKN012 BKN020CB
  • 230700Z AUTO 24005KT 210V290 9999 BKN026 BKN033 BKN040 13/11 Q1016 TEMPO 3000 SHRA BKN012 BKN020CB
  • 230630Z AUTO 24005KT 9999 FEW009 BKN025 BKN033 12/11 Q1016 TEMPO 3000 SHRA BKN012 BKN020CB
  • 230600Z AUTO 24006KT 9999 FEW021 BKN029 OVC076 12/11 Q1016 TEMPO 3000 SHRA BKN012 BKN020CB
  • 230530Z AUTO 23005KT 9999 FEW039 SCT058 OVC074 12/11 Q1016 TEMPO 3000 SHRA BKN012 BKN020CB
  • 230500Z AUTO 22005KT 9999 BKN036 BKN044 OVC054 11/11 Q1016 TEMPO 3000 SHRA BKN012 BKN020CB

TAF TAF LFRD
Valide du 23 à 06h jusqu'au 24 à 06h UTC


230500Z 2306/2406 VRB05KT 9999 SCT030
PROB40
TEMPO 2306/2310 3000 SHRA BKN012 BKN020CB
BECMG 2310/2312 34010KT
TEMPO 2310/2318 3000 SHRA BKN020CB
PROB30
TEMPO 2310/2316 1200 TSRAGS
BECMG 2318/2320 VRB05KT
TEMPO 2402/2406 2000 BR
ATIS : +33 2 99 16 81 50



MET'MAP, la Météo Aéronautique d'un coup d'oeil ! - Copyright ORBIFLY Décembre 2007 - Disclaimer

ORBIFLY MET'MAP TEAM :

Programmation & Développement : Alexandra Zaïnal
Sur une idée originale de : Baudouin d'Aumeries
Soutien technique & logistique : Manuel Goepfert
Assistance : Marc-Olivier Méhu




SOURCES & CREDITS :

   NOAA